Amlwch, United Kingdom
Current Conditions -  °F | °C
As of 5:50 PM on Monday 26 Jan 2015 (Local Time) from EGOV Reporting Station
Broken Clouds Broken Clouds  
Wind Chill: 39°   Ceiling: 25000
Heat Index: 45°   Visibility: 6mi
Dew Point: 37°   Wind: 12mph
Humidity: 76%   Direction: 290°WNW
Pressure: 30.36"   Gusts: NA
Location:  53.41°N, 4.35°W
Report Text: EGOV 261750Z 29010KT 9999 FEW022 BKN250 07/03 Q1028 BLU NOSIG
Loading
Personal Weather Stations






























Interactive Weather Map New forecast layout! Learn more

10-Day Weather Forecast

Advertisements
Track Severe Weather on mobile